createdAt,value
2018-03-14T00:00:01.630Z,50.00
2018-03-14T00:02:27.849Z,54.67
2018-03-14T00:04:54.086Z,82.00
2018-03-14T00:07:20.267Z,50.23
2018-03-14T00:09:46.461Z,50.67
2018-03-14T00:12:12.624Z,56.47
2018-03-14T00:14:38.876Z,59.33
2018-03-14T00:17:05.016Z,58.40
2018-03-14T00:19:31.177Z,53.60
2018-03-14T00:21:57.385Z,49.73
2018-03-14T00:24:23.656Z,54.57
2018-03-14T00:26:50.791Z,52.93
2018-03-14T00:29:17.000Z,55.53
2018-03-14T00:31:43.797Z,62.63
2018-03-14T00:34:10.002Z,62.03
2018-03-14T00:36:36.192Z,60.20
2018-03-14T00:39:02.519Z,57.83
2018-03-14T00:41:28.677Z,95.80
2018-03-14T00:43:54.892Z,55.90
2018-03-14T00:46:21.077Z,60.07
2018-03-14T00:48:47.230Z,55.70
2018-03-14T00:51:13.427Z,48.60
2018-03-14T00:53:39.634Z,51.60
2018-03-14T00:56:05.803Z,54.07
2018-03-14T00:58:32.060Z,66.53
2018-03-14T01:00:58.238Z,52.20
2018-03-14T01:03:24.416Z,52.17
2018-03-14T01:05:50.647Z,51.70
2018-03-14T01:08:16.800Z,48.73
2018-03-14T01:10:42.993Z,64.80
2018-03-14T01:13:09.196Z,60.20
2018-03-14T01:15:35.397Z,68.77
2018-03-14T01:18:01.608Z,94.60
2018-03-14T01:20:27.774Z,67.20
2018-03-14T01:22:53.931Z,83.13
2018-03-14T01:25:20.156Z,73.70
2018-03-14T01:27:46.388Z,71.80
2018-03-14T01:30:12.553Z,72.80
2018-03-14T01:32:38.750Z,75.50
2018-03-14T01:35:05.004Z,66.47
2018-03-14T01:37:31.170Z,65.50
2018-03-14T01:39:57.347Z,55.77
2018-03-14T01:42:23.545Z,53.13
2018-03-14T01:44:49.745Z,56.57
2018-03-14T01:47:15.983Z,63.13
2018-03-14T01:49:42.135Z,49.10
2018-03-14T01:52:08.293Z,61.67
2018-03-14T01:54:34.517Z,83.10
2018-03-14T01:57:00.727Z,57.33
2018-03-14T01:59:26.884Z,48.03
2018-03-14T02:01:53.070Z,58.40
2018-03-14T02:04:19.275Z,59.83
2018-03-14T02:06:45.419Z,62.77
2018-03-14T02:09:11.595Z,55.57
2018-03-14T02:11:37.808Z,68.63
2018-03-14T02:14:04.053Z,62.23
2018-03-14T02:16:30.206Z,56.50
2018-03-14T02:18:56.461Z,71.60
2018-03-14T02:21:22.605Z,62.10
2018-03-14T02:23:48.773Z,67.03
2018-03-14T02:26:14.995Z,72.83
2018-03-14T02:28:41.193Z,79.83
2018-03-14T02:31:07.337Z,107.50
2018-03-14T02:33:33.536Z,85.37
2018-03-14T02:35:59.785Z,80.90
2018-03-14T02:38:25.923Z,85.57
2018-03-14T02:40:52.149Z,85.53
2018-03-14T02:43:18.315Z,88.73
2018-03-14T02:45:44.532Z,99.43
2018-03-14T02:48:10.690Z,74.33
2018-03-14T02:50:36.837Z,104.33
2018-03-14T02:53:03.029Z,96.30
2018-03-14T02:55:29.210Z,92.63
2018-03-14T02:57:55.360Z,109.07
2018-03-14T03:00:21.536Z,110.27
2018-03-14T03:02:47.650Z,95.80
2018-03-14T03:05:13.820Z,108.60
2018-03-14T03:07:40.008Z,117.47
2018-03-14T03:10:06.146Z,100.57
2018-03-14T03:12:32.275Z,108.97
2018-03-14T03:14:58.587Z,113.57
2018-03-14T03:17:24.780Z,106.57
2018-03-14T03:19:50.912Z,117.27
2018-03-14T03:22:17.117Z,176.83
2018-03-14T03:24:43.342Z,243.07
2018-03-14T03:27:09.473Z,327.53
2018-03-14T03:29:35.593Z,314.50
2018-03-14T03:32:01.758Z,437.23
2018-03-14T03:34:28.003Z,314.30
2018-03-14T03:36:54.196Z,289.00
2018-03-14T03:39:20.374Z,322.47
2018-03-14T03:41:46.508Z,212.13
2018-03-14T03:44:12.658Z,389.73
2018-03-14T03:46:38.936Z,397.03
2018-03-14T03:49:05.182Z,324.90
2018-03-14T03:51:31.317Z,312.47
2018-03-14T03:53:57.497Z,334.30
2018-03-14T03:56:23.672Z,208.53
2018-03-14T03:58:49.824Z,207.30
2018-03-14T04:01:15.961Z,220.50
2018-03-14T04:03:49.094Z,196.03
2018-03-14T04:06:15.237Z,186.67
2018-03-14T04:08:41.401Z,170.03
2018-03-14T04:11:07.574Z,287.80
2018-03-14T04:13:33.726Z,206.73
2018-03-14T04:15:59.988Z,315.30
2018-03-14T04:18:26.190Z,257.70
2018-03-14T04:20:52.695Z,234.03
2018-03-14T04:23:18.871Z,232.00
2018-03-14T04:25:45.047Z,194.07
2018-03-14T04:28:11.217Z,268.17
2018-03-14T04:30:37.385Z,262.70
2018-03-14T04:33:03.536Z,213.13
2018-03-14T04:35:29.750Z,253.47
2018-03-14T04:37:55.965Z,246.50
2018-03-14T04:40:22.199Z,269.27
2018-03-14T04:42:48.339Z,164.27
2018-03-14T04:45:14.557Z,256.93
2018-03-14T04:47:40.733Z,305.63
2018-03-14T04:50:06.878Z,206.23
2018-03-14T04:52:33.049Z,246.00
2018-03-14T04:54:59.255Z,233.97
2018-03-14T04:57:25.438Z,321.47
2018-03-14T04:59:51.584Z,183.53
2018-03-14T05:02:17.817Z,313.67
2018-03-14T05:04:43.986Z,346.03
2018-03-14T05:07:10.141Z,268.57
2018-03-14T05:09:36.321Z,272.30
2018-03-14T05:12:02.481Z,201.97
2018-03-14T05:14:28.651Z,368.43
2018-03-14T05:16:55.021Z,365.40
2018-03-14T05:19:21.247Z,357.53
2018-03-14T05:21:47.443Z,349.50
2018-03-14T05:24:13.656Z,388.37
2018-03-14T05:26:39.921Z,438.90
2018-03-14T05:29:06.069Z,327.30
2018-03-14T05:31:32.202Z,345.40
2018-03-14T05:33:58.431Z,285.70
2018-03-14T05:36:24.616Z,400.33
2018-03-14T05:38:50.768Z,439.87
2018-03-14T05:41:16.992Z,422.27
2018-03-14T05:43:43.209Z,410.20
2018-03-14T05:46:09.413Z,403.00
2018-03-14T05:48:35.625Z,472.57
2018-03-14T05:51:01.740Z,417.43
2018-03-14T05:53:27.894Z,519.57
2018-03-14T05:55:54.162Z,479.07
2018-03-14T05:58:20.327Z,540.63
2018-03-14T06:00:46.493Z,528.10
2018-03-14T06:03:12.759Z,604.30
2018-03-14T06:05:38.964Z,344.30
2018-03-14T06:08:05.131Z,412.67
2018-03-14T06:10:31.268Z,429.90
2018-03-14T06:12:57.470Z,247.50
2018-03-14T06:15:23.794Z,238.33
2018-03-14T06:17:50.008Z,386.10
2018-03-14T06:20:16.162Z,316.10
2018-03-14T06:22:42.318Z,317.07
2018-03-14T06:25:08.560Z,355.07
2018-03-14T06:27:34.717Z,268.57
2018-03-14T06:30:00.898Z,255.73
2018-03-14T06:32:27.079Z,214.43
2018-03-14T06:34:53.241Z,183.23
2018-03-14T06:37:19.478Z,226.50
2018-03-14T06:39:45.626Z,307.80
2018-03-14T06:42:11.761Z,301.30
2018-03-14T06:44:37.947Z,207.30
2018-03-14T06:47:04.164Z,178.80
2018-03-14T06:49:30.368Z,174.23
2018-03-14T06:51:56.592Z,165.20
2018-03-14T06:54:22.738Z,144.53
2018-03-14T06:56:48.969Z,115.50
2018-03-14T06:59:27.299Z,139.13
2018-03-14T07:02:05.609Z,132.80
2018-03-14T07:04:37.959Z,131.77
2018-03-14T07:07:04.121Z,111.03
2018-03-14T07:09:30.266Z,142.73
2018-03-14T07:11:56.510Z,106.50
2018-03-14T07:14:22.772Z,98.80
2018-03-14T07:16:48.959Z,104.67
2018-03-14T07:19:15.179Z,97.30
2018-03-14T07:21:41.309Z,93.80
2018-03-14T07:24:07.471Z,88.83
2018-03-14T07:26:33.745Z,118.83
2018-03-14T07:28:59.900Z,99.50
2018-03-14T07:31:26.019Z,71.10
2018-03-14T07:33:52.184Z,116.70
2018-03-14T07:36:18.370Z,64.43
2018-03-14T07:38:44.540Z,69.60
2018-03-14T07:41:10.732Z,68.77
2018-03-14T07:43:36.898Z,75.60
2018-03-14T07:46:03.191Z,77.87
2018-03-14T07:48:29.409Z,70.57
2018-03-14T07:50:55.587Z,68.63
2018-03-14T07:53:21.743Z,71.67
2018-03-14T07:55:47.995Z,68.47
2018-03-14T07:58:14.193Z,68.67
2018-03-14T08:00:40.317Z,67.60
2018-03-14T08:03:06.508Z,68.77
2018-03-14T08:05:32.710Z,61.97
2018-03-14T08:07:58.859Z,63.40
2018-03-14T08:10:25.038Z,78.37
2018-03-14T08:12:51.183Z,53.07
2018-03-14T08:15:17.333Z,60.20
2018-03-14T08:17:43.603Z,60.83
2018-03-14T08:20:09.740Z,52.77
2018-03-14T08:22:35.927Z,62.10
2018-03-14T08:25:02.167Z,48.60
2018-03-14T08:27:28.597Z,42.63
2018-03-14T08:29:54.725Z,50.87
2018-03-14T08:32:20.862Z,50.53
2018-03-14T08:34:47.075Z,54.53
2018-03-14T08:37:13.367Z,44.63
2018-03-14T08:39:39.487Z,37.53
2018-03-14T08:42:05.659Z,45.47
2018-03-14T08:44:31.846Z,36.47
2018-03-14T08:46:58.025Z,52.80
2018-03-14T08:49:24.226Z,46.33
2018-03-14T08:51:50.441Z,37.83
2018-03-14T08:54:16.621Z,36.33
2018-03-14T08:56:42.919Z,41.90
2018-03-14T08:59:09.114Z,28.40
2018-03-14T09:01:35.258Z,28.53
2018-03-14T09:04:01.429Z,26.40
2018-03-14T09:06:27.721Z,24.57
2018-03-14T09:08:53.878Z,27.27
2018-03-14T09:11:20.039Z,24.93
2018-03-14T09:13:46.214Z,25.50
2018-03-14T09:16:12.447Z,24.17
2018-03-14T09:18:38.889Z,24.70
2018-03-14T09:21:05.222Z,27.40
2018-03-14T09:23:31.411Z,34.77
2018-03-14T09:25:57.641Z,23.50
2018-03-14T09:28:24.078Z,24.77
2018-03-14T09:30:50.258Z,26.87
2018-03-14T09:33:16.424Z,23.30
2018-03-14T09:35:42.685Z,24.30
2018-03-14T09:38:08.815Z,22.50
2018-03-14T09:40:35.002Z,24.27
2018-03-14T09:43:01.198Z,27.87
2018-03-14T09:45:27.334Z,27.13
2018-03-14T09:47:53.530Z,26.13
2018-03-14T09:50:19.692Z,24.33
2018-03-14T09:52:45.850Z,22.07
2018-03-14T09:55:12.020Z,19.90
2018-03-14T09:57:38.247Z,22.87
2018-03-14T10:00:04.430Z,23.33
2018-03-14T10:02:30.570Z,21.93
2018-03-14T10:04:56.742Z,29.43
2018-03-14T10:07:22.973Z,30.37
2018-03-14T10:09:49.097Z,25.60
2018-03-14T10:12:15.635Z,26.67
2018-03-14T10:14:41.785Z,21.20
2018-03-14T10:17:07.981Z,24.00
2018-03-14T10:19:34.176Z,29.50
2018-03-14T10:22:00.328Z,24.37
2018-03-14T10:24:26.532Z,31.30
2018-03-14T10:26:52.822Z,26.63
2018-03-14T10:29:19.008Z,27.03
2018-03-14T10:31:45.195Z,26.40
2018-03-14T10:34:11.410Z,24.40
2018-03-14T10:36:38.776Z,27.67
2018-03-14T10:39:05.245Z,23.07
2018-03-14T10:41:31.443Z,28.97
2018-03-14T10:43:59.102Z,27.80
2018-03-14T10:46:25.323Z,35.53
2018-03-14T10:48:51.540Z,33.20
2018-03-14T10:51:17.663Z,26.80
2018-03-14T10:53:45.421Z,33.93
2018-03-14T10:56:11.650Z,31.67
2018-03-14T10:58:37.882Z,43.73
2018-03-14T11:01:10.055Z,41.30
2018-03-14T11:03:40.161Z,28.70
2018-03-14T11:06:06.376Z,33.50
2018-03-14T11:08:32.592Z,35.53
2018-03-14T11:10:58.799Z,39.10
2018-03-14T11:13:24.929Z,35.80
2018-03-14T11:15:51.086Z,33.10
2018-03-14T11:18:17.834Z,40.20
2018-03-14T11:20:45.174Z,30.10
2018-03-14T11:23:11.351Z,34.33
2018-03-14T11:25:37.548Z,28.43
2018-03-14T11:28:03.814Z,27.17
2018-03-14T11:30:29.942Z,31.10
2018-03-14T11:32:56.224Z,36.27
2018-03-14T11:35:22.384Z,28.20
2018-03-14T11:37:49.621Z,23.17
2018-03-14T11:40:19.847Z,26.87
2018-03-14T11:42:45.995Z,23.10
2018-03-14T11:45:12.242Z,22.17
2018-03-14T11:47:39.203Z,18.20
2018-03-14T11:50:05.389Z,22.87
2018-03-14T11:52:31.612Z,21.50
2018-03-14T11:54:57.806Z,26.10
2018-03-14T11:57:23.984Z,19.17
2018-03-14T11:59:50.116Z,26.77
2018-03-14T12:02:16.285Z,20.43
2018-03-14T12:04:43.286Z,17.17
2018-03-14T12:07:09.488Z,11.10
2018-03-14T12:09:35.645Z,9.13
2018-03-14T12:12:01.881Z,20.97
2018-03-14T12:14:28.103Z,15.80
2018-03-14T12:16:54.340Z,13.97
2018-03-14T12:19:20.548Z,14.60
2018-03-14T12:21:46.688Z,15.23
2018-03-14T12:24:12.885Z,16.43
2018-03-14T12:26:39.131Z,16.83
2018-03-14T12:29:05.283Z,12.50
2018-03-14T12:31:31.476Z,28.63
2018-03-14T12:33:57.668Z,13.63
2018-03-14T12:36:23.805Z,18.60
2018-03-14T12:38:50.044Z,14.30
2018-03-14T12:41:16.247Z,19.40
2018-03-14T12:43:42.425Z,20.30
2018-03-14T12:46:08.622Z,20.07
2018-03-14T12:48:34.806Z,12.90
2018-03-14T12:51:01.048Z,14.90
2018-03-14T12:53:27.209Z,12.97
2018-03-14T12:55:53.378Z,13.13
2018-03-14T12:58:19.618Z,13.27
2018-03-14T13:00:45.759Z,16.53
2018-03-14T13:03:12.001Z,12.70
2018-03-14T13:05:38.145Z,16.50
2018-03-14T13:08:04.348Z,16.97
2018-03-14T13:10:30.487Z,13.10
2018-03-14T13:12:56.670Z,15.83
2018-03-14T13:15:22.896Z,17.03
2018-03-14T13:17:49.107Z,17.60
2018-03-14T13:20:15.250Z,12.20
2018-03-14T13:22:41.419Z,14.20
2018-03-14T13:25:07.617Z,12.20
2018-03-14T13:27:33.829Z,11.97
2018-03-14T13:30:00.021Z,11.43
2018-03-14T13:32:26.197Z,16.00
2018-03-14T13:34:52.454Z,28.03
2018-03-14T13:37:18.627Z,43.93
2018-03-14T13:39:44.801Z,16.10
2018-03-14T13:42:10.956Z,19.00
2018-03-14T13:44:37.173Z,20.23
2018-03-14T13:47:03.434Z,9.73
2018-03-14T13:49:29.639Z,11.47
2018-03-14T13:51:55.782Z,12.20
2018-03-14T13:54:21.941Z,12.43
2018-03-14T13:56:48.139Z,13.73
2018-03-14T13:59:14.413Z,16.33
2018-03-14T14:01:40.595Z,12.70
2018-03-14T14:04:06.756Z,12.77
2018-03-14T14:06:32.953Z,11.30
2018-03-14T14:08:59.152Z,13.73
2018-03-14T14:11:25.681Z,15.10
2018-03-14T14:13:51.907Z,12.97
2018-03-14T14:16:18.047Z,13.97
2018-03-14T14:18:44.243Z,16.03
2018-03-14T14:21:10.427Z,15.00
2018-03-14T14:23:36.601Z,14.00
2018-03-14T14:26:02.793Z,17.37
2018-03-14T14:28:29.019Z,12.63
2018-03-14T14:30:55.165Z,11.07
2018-03-14T14:33:21.344Z,18.37
2018-03-14T14:35:47.529Z,12.97
2018-03-14T14:38:13.740Z,10.47
2018-03-14T14:40:39.911Z,14.63
2018-03-14T14:43:06.697Z,10.37
2018-03-14T14:45:32.834Z,10.43
2018-03-14T14:47:59.743Z,14.70
2018-03-14T14:50:26.100Z,20.67
2018-03-14T14:52:52.222Z,9.83
2018-03-14T14:55:18.408Z,9.03
2018-03-14T14:57:45.595Z,13.60
2018-03-14T15:00:11.736Z,13.60
2018-03-14T15:02:37.874Z,28.67
2018-03-14T15:05:04.136Z,12.73
2018-03-14T15:07:30.444Z,20.03
2018-03-14T15:09:56.618Z,10.10
2018-03-14T15:12:22.813Z,10.20
2018-03-14T15:14:49.007Z,10.30
2018-03-14T15:17:15.324Z,13.43
2018-03-14T15:19:41.553Z,14.07
2018-03-14T15:22:07.715Z,14.63
2018-03-14T15:24:33.875Z,18.70
2018-03-14T15:27:00.029Z,10.77
2018-03-14T15:29:26.249Z,10.80
2018-03-14T15:31:52.376Z,11.77
2018-03-14T15:34:18.558Z,15.70
2018-03-14T15:36:44.758Z,10.00
2018-03-14T15:39:10.952Z,16.30
2018-03-14T15:41:37.108Z,13.47
2018-03-14T15:44:03.308Z,9.93
2018-03-14T15:46:29.437Z,9.57
2018-03-14T15:48:55.680Z,12.20
2018-03-14T15:51:21.877Z,10.63
2018-03-14T15:53:48.081Z,14.60
2018-03-14T15:56:14.282Z,13.23
2018-03-14T15:58:40.488Z,15.03
2018-03-14T16:01:06.664Z,12.63
2018-03-14T16:03:32.865Z,15.70
2018-03-14T16:05:58.998Z,11.27
2018-03-14T16:08:25.180Z,13.50
2018-03-14T16:10:51.400Z,16.50
2018-03-14T16:13:17.545Z,16.03
2018-03-14T16:15:43.699Z,29.30
2018-03-14T16:18:09.930Z,20.23
2018-03-14T16:20:36.101Z,16.83
2018-03-14T16:23:02.307Z,24.83
2018-03-14T16:25:28.505Z,15.53
2018-03-14T16:27:54.642Z,13.83
2018-03-14T16:30:20.860Z,19.60
2018-03-14T16:32:47.024Z,19.57
2018-03-14T16:35:13.333Z,11.33
2018-03-14T16:37:39.535Z,8.97
2018-03-14T16:40:05.754Z,10.00
2018-03-14T16:42:31.896Z,12.20
2018-03-14T16:44:58.049Z,15.93
2018-03-14T16:47:24.248Z,22.77
2018-03-14T16:49:50.720Z,9.43
2018-03-14T16:52:16.875Z,20.27
2018-03-14T16:54:43.054Z,14.47
2018-03-14T16:57:09.226Z,16.83
2018-03-14T16:59:35.678Z,12.27
2018-03-14T17:02:01.879Z,34.73
2018-03-14T17:04:28.057Z,18.43
2018-03-14T17:06:54.222Z,14.50
2018-03-14T17:09:20.429Z,15.57
2018-03-14T17:11:46.623Z,19.90
2018-03-14T17:14:12.765Z,24.93
2018-03-14T17:16:38.939Z,20.03
2018-03-14T17:19:05.168Z,18.13
2018-03-14T17:21:31.314Z,18.23
2018-03-14T17:23:57.496Z,17.77
2018-03-14T17:26:23.620Z,26.40
2018-03-14T17:28:49.899Z,38.60
2018-03-14T17:31:16.061Z,28.60
2018-03-14T17:33:42.215Z,39.10
2018-03-14T17:36:08.363Z,27.53
2018-03-14T17:38:34.683Z,20.37
2018-03-14T17:41:00.782Z,31.93
2018-03-14T17:43:26.986Z,26.00
2018-03-14T17:45:53.123Z,23.73
2018-03-14T17:48:19.764Z,24.50
2018-03-14T17:50:45.993Z,26.10
2018-03-14T17:53:12.149Z,30.57
2018-03-14T17:55:38.348Z,25.07
2018-03-14T17:58:04.542Z,13.70
2018-03-14T18:00:30.778Z,15.70
2018-03-14T18:02:56.938Z,20.93
2018-03-14T18:05:23.093Z,36.90
2018-03-14T18:07:49.293Z,23.30
2018-03-14T18:10:15.576Z,21.00
2018-03-14T18:12:41.776Z,21.17
2018-03-14T18:15:07.967Z,12.70
2018-03-14T18:17:34.167Z,14.67
2018-03-14T18:20:00.411Z,19.27
2018-03-14T18:22:26.601Z,16.30
2018-03-14T18:24:52.784Z,17.47
2018-03-14T18:27:18.950Z,22.93
2018-03-14T18:29:45.190Z,15.17
2018-03-14T18:32:11.349Z,24.43
2018-03-14T18:34:37.520Z,17.17
2018-03-14T18:37:03.758Z,27.53
2018-03-14T18:39:29.980Z,23.43
2018-03-14T18:41:56.148Z,33.53
2018-03-14T18:44:22.273Z,21.00
2018-03-14T18:46:48.609Z,16.33
2018-03-14T18:49:14.866Z,34.90
2018-03-14T18:51:41.077Z,16.17
2018-03-14T18:54:07.285Z,15.10
2018-03-14T18:56:33.479Z,22.63
2018-03-14T18:58:59.741Z,16.33
2018-03-14T19:01:25.964Z,20.00
2018-03-14T19:03:52.161Z,26.03
2018-03-14T19:06:18.312Z,26.30
2018-03-14T19:08:44.571Z,26.23
2018-03-14T19:11:10.772Z,21.43
2018-03-14T19:13:36.990Z,27.20
2018-03-14T19:16:03.263Z,26.63
2018-03-14T19:18:29.452Z,25.17
2018-03-14T19:20:55.620Z,20.37
2018-03-14T19:23:21.791Z,28.73
2018-03-14T19:25:48.013Z,15.83
2018-03-14T19:28:14.184Z,25.47
2018-03-14T19:30:40.375Z,22.27
2018-03-14T19:33:06.612Z,27.53
2018-03-14T19:35:32.760Z,28.90
2018-03-14T19:37:58.907Z,20.67
2018-03-14T19:40:25.156Z,21.30
2018-03-14T19:42:51.259Z,16.73
2018-03-14T19:45:17.399Z,34.63
2018-03-14T19:47:43.644Z,25.73
2018-03-14T19:50:09.984Z,23.87
2018-03-14T19:52:36.154Z,23.00
2018-03-14T19:55:02.390Z,39.87
2018-03-14T19:57:28.523Z,19.87
2018-03-14T19:59:54.765Z,20.70
2018-03-14T20:02:21.001Z,19.97
2018-03-14T20:04:47.258Z,29.13
2018-03-14T20:07:13.365Z,34.90
2018-03-14T20:09:39.739Z,29.87
2018-03-14T20:12:05.920Z,26.23
2018-03-14T20:14:32.095Z,33.17
2018-03-14T20:16:58.225Z,33.47
2018-03-14T20:19:25.382Z,30.73
2018-03-14T20:21:51.512Z,32.60
2018-03-14T20:24:17.632Z,24.43
2018-03-14T20:26:43.790Z,24.40
2018-03-14T20:29:09.992Z,26.77
2018-03-14T20:31:36.099Z,34.60
2018-03-14T20:34:02.289Z,29.03
2018-03-14T20:36:28.613Z,18.33
2018-03-14T20:38:54.917Z,23.87
2018-03-14T20:41:21.152Z,33.57
2018-03-14T20:43:47.271Z,18.83
2018-03-14T20:46:13.583Z,15.70
2018-03-14T20:48:39.760Z,35.77
2018-03-14T20:51:05.933Z,26.37
2018-03-14T20:53:32.122Z,23.60
2018-03-14T20:55:58.279Z,23.60
2018-03-14T20:58:24.417Z,20.87
2018-03-14T21:00:50.599Z,18.90
2018-03-14T21:03:16.712Z,17.67
2018-03-14T21:05:42.833Z,17.13
2018-03-14T21:08:09.013Z,30.30
2018-03-14T21:10:35.204Z,19.40
2018-03-14T21:13:01.311Z,17.97
2018-03-14T21:15:27.473Z,16.27
2018-03-14T21:17:53.651Z,17.97
2018-03-14T21:20:19.819Z,19.30
2018-03-14T21:22:45.973Z,19.03
2018-03-14T21:25:12.059Z,17.60
2018-03-14T21:27:38.173Z,20.20
2018-03-14T21:30:04.374Z,20.17
2018-03-14T21:32:30.492Z,16.53
2018-03-14T21:34:56.585Z,18.90
2018-03-14T21:37:22.716Z,20.13
2018-03-14T21:39:48.869Z,21.13
2018-03-14T21:42:14.997Z,14.63
2018-03-14T21:44:41.135Z,41.03
2018-03-14T21:47:07.285Z,18.00
2018-03-14T21:49:33.438Z,16.67
2018-03-14T21:51:59.586Z,17.13
2018-03-14T21:54:25.733Z,19.10
2018-03-14T21:56:51.849Z,20.53
2018-03-14T21:59:17.970Z,22.20
2018-03-14T22:01:44.114Z,19.17
2018-03-14T22:04:10.195Z,23.67
2018-03-14T22:06:36.332Z,19.50
2018-03-14T22:09:02.475Z,17.53
2018-03-14T22:11:28.744Z,18.53
2018-03-14T22:13:54.821Z,20.60
2018-03-14T22:16:20.929Z,19.80
2018-03-14T22:18:47.100Z,18.20
2018-03-14T22:21:13.316Z,45.10
2018-03-14T22:23:39.428Z,16.47
2018-03-14T22:26:05.557Z,15.17
2018-03-14T22:28:31.703Z,19.60
2018-03-14T22:30:57.849Z,18.60
2018-03-14T22:33:23.935Z,18.03
2018-03-14T22:35:50.053Z,18.67
2018-03-14T22:38:16.187Z,20.77
2018-03-14T22:40:42.318Z,15.77
2018-03-14T22:43:08.407Z,14.93
2018-03-14T22:45:34.530Z,17.93
2018-03-14T22:48:00.709Z,20.23
2018-03-14T22:50:26.882Z,16.70
2018-03-14T22:52:53.021Z,14.97
2018-03-14T22:55:19.115Z,18.73
2018-03-14T22:57:45.218Z,42.70
2018-03-14T23:00:11.373Z,16.70
2018-03-14T23:02:37.475Z,21.50
2018-03-14T23:05:03.635Z,20.67
2018-03-14T23:07:29.765Z,19.17
2018-03-14T23:09:55.892Z,14.97
2018-03-14T23:12:21.994Z,17.13
2018-03-14T23:14:48.108Z,16.93
2018-03-14T23:17:14.252Z,20.97
2018-03-14T23:19:40.415Z,17.43
2018-03-14T23:22:06.590Z,14.77
2018-03-14T23:24:32.715Z,14.53
2018-03-14T23:26:58.820Z,18.23
2018-03-14T23:29:24.917Z,16.93
2018-03-14T23:31:51.135Z,19.80
2018-03-14T23:34:17.227Z,34.87
2018-03-14T23:36:43.324Z,16.23
2018-03-14T23:39:09.476Z,18.00
2018-03-14T23:41:35.652Z,16.20
2018-03-14T23:44:01.759Z,14.70
2018-03-14T23:46:27.884Z,16.20
2018-03-14T23:48:54.046Z,13.27
2018-03-14T23:51:20.210Z,14.33
2018-03-14T23:53:46.318Z,15.60
2018-03-14T23:56:12.402Z,13.63
2018-03-14T23:58:38.558Z,14.80
